sensor_id;sensor_type;location;lat;lon;timestamp;P1;durP1;ratioP1;P2;durP2;ratioP2
85093;SDS011;75432;49.056;12.004;2024-02-23T00:02:10;2.58;;;1.90;;
85093;SDS011;75432;49.056;12.004;2024-02-23T00:04:36;3.07;;;1.60;;
85093;SDS011;75432;49.056;12.004;2024-02-23T00:07:03;3.00;;;1.70;;
85093;SDS011;75432;49.056;12.004;2024-02-23T00:09:30;2.30;;;1.70;;
85093;SDS011;75432;49.056;12.004;2024-02-23T00:11:56;2.35;;;1.50;;
85093;SDS011;75432;49.056;12.004;2024-02-23T00:14:23;2.40;;;1.25;;
85093;SDS011;75432;49.056;12.004;2024-02-23T00:16:50;2.15;;;1.60;;
85093;SDS011;75432;49.056;12.004;2024-02-23T00:19:16;1.27;;;1.13;;
85093;SDS011;75432;49.056;12.004;2024-02-23T00:21:45;1.60;;;1.20;;
85093;SDS011;75432;49.056;12.004;2024-02-23T00:24:16;2.50;;;1.27;;
85093;SDS011;75432;49.056;12.004;2024-02-23T00:26:43;1.63;;;1.10;;
85093;SDS011;75432;49.056;12.004;2024-02-23T00:29:10;4.03;;;1.40;;
85093;SDS011;75432;49.056;12.004;2024-02-23T00:31:40;2.03;;;1.00;;
85093;SDS011;75432;49.056;12.004;2024-02-23T00:34:11;1.42;;;1.15;;
85093;SDS011;75432;49.056;12.004;2024-02-23T00:36:40;1.80;;;0.70;;
85093;SDS011;75432;49.056;12.004;2024-02-23T00:39:07;1.10;;;1.00;;
85093;SDS011;75432;49.056;12.004;2024-02-23T00:41:34;2.58;;;0.90;;
85093;SDS011;75432;49.056;12.004;2024-02-23T00:44:02;0.70;;;0.70;;
85093;SDS011;75432;49.056;12.004;2024-02-23T00:46:29;0.88;;;0.88;;
85093;SDS011;75432;49.056;12.004;2024-02-23T00:48:56;0.70;;;0.70;;
85093;SDS011;75432;49.056;12.004;2024-02-23T00:51:22;1.90;;;0.70;;
85093;SDS011;75432;49.056;12.004;2024-02-23T00:53:49;0.68;;;0.68;;
85093;SDS011;75432;49.056;12.004;2024-02-23T00:56:15;3.53;;;0.63;;
85093;SDS011;75432;49.056;12.004;2024-02-23T00:58:42;1.52;;;0.88;;
85093;SDS011;75432;49.056;12.004;2024-02-23T01:01:08;0.67;;;0.67;;
85093;SDS011;75432;49.056;12.004;2024-02-23T01:03:35;1.07;;;0.73;;
85093;SDS011;75432;49.056;12.004;2024-02-23T01:06:02;1.33;;;0.60;;
85093;SDS011;75432;49.056;12.004;2024-02-23T01:08:29;0.60;;;0.57;;
85093;SDS011;75432;49.056;12.004;2024-02-23T01:10:55;1.17;;;0.60;;
85093;SDS011;75432;49.056;12.004;2024-02-23T01:13:22;0.60;;;0.50;;
85093;SDS011;75432;49.056;12.004;2024-02-23T01:15:48;0.83;;;0.60;;
85093;SDS011;75432;49.056;12.004;2024-02-23T01:18:15;0.73;;;0.73;;
85093;SDS011;75432;49.056;12.004;2024-02-23T01:20:42;1.35;;;0.60;;
85093;SDS011;75432;49.056;12.004;2024-02-23T01:23:08;0.70;;;0.70;;
85093;SDS011;75432;49.056;12.004;2024-02-23T01:25:35;2.33;;;0.30;;
85093;SDS011;75432;49.056;12.004;2024-02-23T01:28:01;0.47;;;0.47;;
85093;SDS011;75432;49.056;12.004;2024-02-23T01:30:29;0.10;;;0.10;;
85093;SDS011;75432;49.056;12.004;2024-02-23T01:32:55;1.17;;;0.33;;
85093;SDS011;75432;49.056;12.004;2024-02-23T01:35:22;1.30;;;0.10;;
85093;SDS011;75432;49.056;12.004;2024-02-23T01:37:49;0.30;;;0.30;;
85093;SDS011;75432;49.056;12.004;2024-02-23T01:40:15;0.20;;;0.20;;
85093;SDS011;75432;49.056;12.004;2024-02-23T01:42:42;0.10;;;0.10;;
85093;SDS011;75432;49.056;12.004;2024-02-23T01:45:08;1.23;;;0.20;;
85093;SDS011;75432;49.056;12.004;2024-02-23T01:47:35;0.57;;;0.10;;
85093;SDS011;75432;49.056;12.004;2024-02-23T01:50:02;0.20;;;0.20;;
85093;SDS011;75432;49.056;12.004;2024-02-23T01:52:29;1.63;;;0.30;;
85093;SDS011;75432;49.056;12.004;2024-02-23T01:54:56;3.13;;;0.30;;
85093;SDS011;75432;49.056;12.004;2024-02-23T01:57:22;0.60;;;0.30;;
85093;SDS011;75432;49.056;12.004;2024-02-23T02:00:10;0.20;;;0.10;;
85093;SDS011;75432;49.056;12.004;2024-02-23T02:02:44;0.80;;;0.20;;
85093;SDS011;75432;49.056;12.004;2024-02-23T02:05:11;0.20;;;0.20;;
85093;SDS011;75432;49.056;12.004;2024-02-23T02:07:39;0.20;;;0.20;;
85093;SDS011;75432;49.056;12.004;2024-02-23T02:10:08;0.20;;;0.20;;
85093;SDS011;75432;49.056;12.004;2024-02-23T02:12:36;0.63;;;0.37;;
85093;SDS011;75432;49.056;12.004;2024-02-23T02:15:03;0.40;;;0.40;;
85093;SDS011;75432;49.056;12.004;2024-02-23T02:17:30;0.20;;;0.20;;
85093;SDS011;75432;49.056;12.004;2024-02-23T02:20:02;0.33;;;0.17;;
85093;SDS011;75432;49.056;12.004;2024-02-23T02:22:33;0.30;;;0.30;;
85093;SDS011;75432;49.056;12.004;2024-02-23T02:25:00;0.20;;;0.20;;
85093;SDS011;75432;49.056;12.004;2024-02-23T02:27:27;0.30;;;0.30;;
85093;SDS011;75432;49.056;12.004;2024-02-23T02:29:53;0.83;;;0.30;;
85093;SDS011;75432;49.056;12.004;2024-02-23T02:32:20;0.30;;;0.23;;
85093;SDS011;75432;49.056;12.004;2024-02-23T02:34:47;0.63;;;0.23;;
85093;SDS011;75432;49.056;12.004;2024-02-23T02:37:13;0.20;;;0.20;;
85093;SDS011;75432;49.056;12.004;2024-02-23T02:39:40;0.83;;;0.53;;
85093;SDS011;75432;49.056;12.004;2024-02-23T02:42:07;0.17;;;0.17;;
85093;SDS011;75432;49.056;12.004;2024-02-23T02:44:33;0.73;;;0.53;;
85093;SDS011;75432;49.056;12.004;2024-02-23T02:47:00;1.03;;;0.37;;
85093;SDS011;75432;49.056;12.004;2024-02-23T02:49:27;1.40;;;0.50;;
85093;SDS011;75432;49.056;12.004;2024-02-23T02:51:53;0.43;;;0.40;;
85093;SDS011;75432;49.056;12.004;2024-02-23T02:54:20;1.50;;;0.20;;
85093;SDS011;75432;49.056;12.004;2024-02-23T02:56:49;0.70;;;0.30;;
85093;SDS011;75432;49.056;12.004;2024-02-23T02:59:16;2.07;;;0.50;;
85093;SDS011;75432;49.056;12.004;2024-02-23T03:01:44;0.87;;;0.30;;
85093;SDS011;75432;49.056;12.004;2024-02-23T03:04:12;2.97;;;0.50;;
85093;SDS011;75432;49.056;12.004;2024-02-23T03:06:38;2.90;;;0.70;;
85093;SDS011;75432;49.056;12.004;2024-02-23T03:09:05;2.00;;;0.40;;
85093;SDS011;75432;49.056;12.004;2024-02-23T03:11:33;2.57;;;0.57;;
85093;SDS011;75432;49.056;12.004;2024-02-23T03:14:00;1.30;;;0.33;;
85093;SDS011;75432;49.056;12.004;2024-02-23T03:16:26;1.33;;;0.37;;
85093;SDS011;75432;49.056;12.004;2024-02-23T03:18:53;0.50;;;0.47;;
85093;SDS011;75432;49.056;12.004;2024-02-23T03:21:20;0.27;;;0.27;;
85093;SDS011;75432;49.056;12.004;2024-02-23T03:23:47;1.17;;;0.20;;
85093;SDS011;75432;49.056;12.004;2024-02-23T03:26:13;1.37;;;0.30;;
85093;SDS011;75432;49.056;12.004;2024-02-23T03:28:42;2.33;;;0.30;;
85093;SDS011;75432;49.056;12.004;2024-02-23T03:31:09;1.77;;;0.30;;
85093;SDS011;75432;49.056;12.004;2024-02-23T03:33:35;2.73;;;0.40;;
85093;SDS011;75432;49.056;12.004;2024-02-23T03:36:02;2.17;;;0.50;;
85093;SDS011;75432;49.056;12.004;2024-02-23T03:38:29;0.70;;;0.60;;
85093;SDS011;75432;49.056;12.004;2024-02-23T03:40:58;1.07;;;0.50;;
85093;SDS011;75432;49.056;12.004;2024-02-23T03:43:24;3.37;;;0.50;;
85093;SDS011;75432;49.056;12.004;2024-02-23T03:45:51;0.70;;;0.67;;
85093;SDS011;75432;49.056;12.004;2024-02-23T03:48:17;1.13;;;0.40;;
85093;SDS011;75432;49.056;12.004;2024-02-23T03:50:44;1.80;;;0.40;;
85093;SDS011;75432;49.056;12.004;2024-02-23T03:53:10;4.27;;;0.60;;
85093;SDS011;75432;49.056;12.004;2024-02-23T03:55:37;1.87;;;0.50;;
85093;SDS011;75432;49.056;12.004;2024-02-23T03:58:04;1.17;;;0.40;;
85093;SDS011;75432;49.056;12.004;2024-02-23T04:00:30;1.50;;;0.40;;
85093;SDS011;75432;49.056;12.004;2024-02-23T04:02:57;1.57;;;0.40;;
85093;SDS011;75432;49.056;12.004;2024-02-23T04:05:24;2.57;;;0.60;;
85093;SDS011;75432;49.056;12.004;2024-02-23T04:07:50;0.43;;;0.43;;
85093;SDS011;75432;49.056;12.004;2024-02-23T04:10:17;1.17;;;0.40;;
85093;SDS011;75432;49.056;12.004;2024-02-23T04:12:48;2.93;;;0.53;;
85093;SDS011;75432;49.056;12.004;2024-02-23T04:15:15;2.03;;;0.30;;
85093;SDS011;75432;49.056;12.004;2024-02-23T04:17:41;2.07;;;0.30;;
85093;SDS011;75432;49.056;12.004;2024-02-23T04:20:08;2.77;;;0.70;;
85093;SDS011;75432;49.056;12.004;2024-02-23T04:22:38;1.47;;;0.50;;
85093;SDS011;75432;49.056;12.004;2024-02-23T04:25:05;1.50;;;0.40;;
85093;SDS011;75432;49.056;12.004;2024-02-23T04:27:31;3.90;;;0.50;;
85093;SDS011;75432;49.056;12.004;2024-02-23T04:29:58;0.43;;;0.40;;
85093;SDS011;75432;49.056;12.004;2024-02-23T04:32:24;0.97;;;0.40;;
85093;SDS011;75432;49.056;12.004;2024-02-23T04:34:51;0.40;;;0.40;;
85093;SDS011;75432;49.056;12.004;2024-02-23T04:37:18;1.27;;;0.50;;
85093;SDS011;75432;49.056;12.004;2024-02-23T04:39:44;1.43;;;0.90;;
85093;SDS011;75432;49.056;12.004;2024-02-23T04:42:11;3.47;;;0.60;;
85093;SDS011;75432;49.056;12.004;2024-02-23T04:44:37;1.00;;;0.20;;
85093;SDS011;75432;49.056;12.004;2024-02-23T04:47:04;3.23;;;0.43;;
85093;SDS011;75432;49.056;12.004;2024-02-23T04:49:31;1.03;;;0.47;;
85093;SDS011;75432;49.056;12.004;2024-02-23T04:51:57;2.23;;;0.50;;
85093;SDS011;75432;49.056;12.004;2024-02-23T04:54:24;1.50;;;0.40;;
85093;SDS011;75432;49.056;12.004;2024-02-23T04:56:50;0.43;;;0.30;;
85093;SDS011;75432;49.056;12.004;2024-02-23T04:59:17;1.83;;;0.30;;
85093;SDS011;75432;49.056;12.004;2024-02-23T05:01:43;2.73;;;0.40;;
85093;SDS011;75432;49.056;12.004;2024-02-23T05:04:10;3.20;;;0.40;;
85093;SDS011;75432;49.056;12.004;2024-02-23T05:06:36;1.20;;;0.40;;
85093;SDS011;75432;49.056;12.004;2024-02-23T05:09:03;0.73;;;0.60;;
85093;SDS011;75432;49.056;12.004;2024-02-23T05:11:29;0.73;;;0.37;;
85093;SDS011;75432;49.056;12.004;2024-02-23T05:13:56;2.13;;;0.30;;
85093;SDS011;75432;49.056;12.004;2024-02-23T05:16:22;5.03;;;0.70;;
85093;SDS011;75432;49.056;12.004;2024-02-23T05:18:49;0.10;;;0.10;;
85093;SDS011;75432;49.056;12.004;2024-02-23T05:21:16;1.77;;;0.53;;
85093;SDS011;75432;49.056;12.004;2024-02-23T05:23:43;2.60;;;0.50;;
85093;SDS011;75432;49.056;12.004;2024-02-23T05:26:10;1.40;;;0.23;;
85093;SDS011;75432;49.056;12.004;2024-02-23T05:28:37;1.20;;;0.40;;
85093;SDS011;75432;49.056;12.004;2024-02-23T05:31:04;2.40;;;0.40;;
85093;SDS011;75432;49.056;12.004;2024-02-23T05:33:30;1.93;;;0.40;;
85093;SDS011;75432;49.056;12.004;2024-02-23T05:35:57;0.73;;;0.50;;
85093;SDS011;75432;49.056;12.004;2024-02-23T05:38:23;2.40;;;0.30;;
85093;SDS011;75432;49.056;12.004;2024-02-23T05:40:50;2.23;;;0.40;;
85093;SDS011;75432;49.056;12.004;2024-02-23T05:43:17;0.30;;;0.30;;
85093;SDS011;75432;49.056;12.004;2024-02-23T05:45:43;2.20;;;0.50;;
85093;SDS011;75432;49.056;12.004;2024-02-23T05:48:11;0.70;;;0.30;;
85093;SDS011;75432;49.056;12.004;2024-02-23T05:50:38;2.30;;;0.40;;
85093;SDS011;75432;49.056;12.004;2024-02-23T05:53:05;2.10;;;0.37;;
85093;SDS011;75432;49.056;12.004;2024-02-23T05:55:31;2.27;;;0.63;;
85093;SDS011;75432;49.056;12.004;2024-02-23T05:57:58;1.70;;;0.47;;
85093;SDS011;75432;49.056;12.004;2024-02-23T06:00:25;1.77;;;0.60;;
85093;SDS011;75432;49.056;12.004;2024-02-23T06:02:51;1.57;;;0.60;;
85093;SDS011;75432;49.056;12.004;2024-02-23T06:05:18;1.60;;;0.30;;
85093;SDS011;75432;49.056;12.004;2024-02-23T06:07:44;0.47;;;0.40;;
85093;SDS011;75432;49.056;12.004;2024-02-23T06:10:11;0.83;;;0.50;;
85093;SDS011;75432;49.056;12.004;2024-02-23T06:12:37;1.43;;;0.50;;
85093;SDS011;75432;49.056;12.004;2024-02-23T06:15:04;2.20;;;0.50;;
85093;SDS011;75432;49.056;12.004;2024-02-23T06:17:32;2.27;;;0.57;;
85093;SDS011;75432;49.056;12.004;2024-02-23T06:19:58;1.00;;;0.47;;
85093;SDS011;75432;49.056;12.004;2024-02-23T06:22:26;3.87;;;0.80;;
85093;SDS011;75432;49.056;12.004;2024-02-23T06:24:52;1.60;;;0.70;;
85093;SDS011;75432;49.056;12.004;2024-02-23T06:27:19;0.77;;;0.50;;
85093;SDS011;75432;49.056;12.004;2024-02-23T06:29:45;2.10;;;0.70;;
85093;SDS011;75432;49.056;12.004;2024-02-23T06:32:11;2.60;;;0.50;;
85093;SDS011;75432;49.056;12.004;2024-02-23T06:34:38;0.50;;;0.50;;
85093;SDS011;75432;49.056;12.004;2024-02-23T06:37:04;0.50;;;0.50;;
85093;SDS011;75432;49.056;12.004;2024-02-23T06:39:31;0.53;;;0.53;;
85093;SDS011;75432;49.056;12.004;2024-02-23T06:41:58;3.50;;;0.70;;
85093;SDS011;75432;49.056;12.004;2024-02-23T06:44:26;2.87;;;0.60;;
85093;SDS011;75432;49.056;12.004;2024-02-23T06:46:53;1.53;;;0.70;;
85093;SDS011;75432;49.056;12.004;2024-02-23T06:49:20;0.80;;;0.50;;
85093;SDS011;75432;49.056;12.004;2024-02-23T06:51:46;1.13;;;0.93;;
85093;SDS011;75432;49.056;12.004;2024-02-23T06:54:13;0.97;;;0.60;;
85093;SDS011;75432;49.056;12.004;2024-02-23T06:56:39;0.57;;;0.47;;
85093;SDS011;75432;49.056;12.004;2024-02-23T06:59:06;2.33;;;0.70;;
85093;SDS011;75432;49.056;12.004;2024-02-23T07:01:32;0.87;;;0.40;;
85093;SDS011;75432;49.056;12.004;2024-02-23T07:04:05;0.77;;;0.40;;
85093;SDS011;75432;49.056;12.004;2024-02-23T07:06:31;0.67;;;0.60;;
85093;SDS011;75432;49.056;12.004;2024-02-23T07:08:58;0.70;;;0.70;;
85093;SDS011;75432;49.056;12.004;2024-02-23T07:11:25;1.73;;;0.60;;
85093;SDS011;75432;49.056;12.004;2024-02-23T07:13:51;4.60;;;0.70;;
85093;SDS011;75432;49.056;12.004;2024-02-23T07:16:18;2.27;;;0.70;;
85093;SDS011;75432;49.056;12.004;2024-02-23T07:18:45;0.33;;;0.30;;
85093;SDS011;75432;49.056;12.004;2024-02-23T07:21:11;1.77;;;0.70;;
85093;SDS011;75432;49.056;12.004;2024-02-23T07:23:38;1.50;;;0.63;;
85093;SDS011;75432;49.056;12.004;2024-02-23T07:26:04;0.40;;;0.40;;
85093;SDS011;75432;49.056;12.004;2024-02-23T07:28:31;1.23;;;0.50;;
85093;SDS011;75432;49.056;12.004;2024-02-23T07:30:59;2.13;;;0.43;;
85093;SDS011;75432;49.056;12.004;2024-02-23T07:33:25;1.17;;;0.50;;
85093;SDS011;75432;49.056;12.004;2024-02-23T07:35:52;0.30;;;0.30;;
85093;SDS011;75432;49.056;12.004;2024-02-23T07:38:18;1.00;;;0.50;;
85093;SDS011;75432;49.056;12.004;2024-02-23T07:40:45;0.67;;;0.40;;
85093;SDS011;75432;49.056;12.004;2024-02-23T07:43:12;0.60;;;0.60;;
85093;SDS011;75432;49.056;12.004;2024-02-23T07:45:39;0.83;;;0.30;;
85093;SDS011;75432;49.056;12.004;2024-02-23T07:48:06;1.70;;;0.70;;
85093;SDS011;75432;49.056;12.004;2024-02-23T07:50:35;1.87;;;0.50;;
85093;SDS011;75432;49.056;12.004;2024-02-23T07:53:01;2.13;;;0.93;;
85093;SDS011;75432;49.056;12.004;2024-02-23T07:55:28;2.13;;;0.50;;
85093;SDS011;75432;49.056;12.004;2024-02-23T07:57:54;2.33;;;0.90;;
85093;SDS011;75432;49.056;12.004;2024-02-23T08:00:27;0.50;;;0.50;;
85093;SDS011;75432;49.056;12.004;2024-02-23T08:02:54;1.40;;;0.90;;
85093;SDS011;75432;49.056;12.004;2024-02-23T08:05:23;0.77;;;0.70;;
85093;SDS011;75432;49.056;12.004;2024-02-23T08:07:50;1.03;;;0.70;;
85093;SDS011;75432;49.056;12.004;2024-02-23T08:10:16;1.10;;;0.70;;
85093;SDS011;75432;49.056;12.004;2024-02-23T08:12:43;1.10;;;0.87;;
85093;SDS011;75432;49.056;12.004;2024-02-23T08:15:10;2.33;;;0.70;;
85093;SDS011;75432;49.056;12.004;2024-02-23T08:17:37;2.20;;;0.53;;
85093;SDS011;75432;49.056;12.004;2024-02-23T08:20:04;2.60;;;0.80;;
85093;SDS011;75432;49.056;12.004;2024-02-23T08:22:31;1.73;;;0.80;;
85093;SDS011;75432;49.056;12.004;2024-02-23T08:24:57;0.50;;;0.50;;
85093;SDS011;75432;49.056;12.004;2024-02-23T08:27:24;0.97;;;0.80;;
85093;SDS011;75432;49.056;12.004;2024-02-23T08:29:50;0.70;;;0.60;;
85093;SDS011;75432;49.056;12.004;2024-02-23T08:32:17;1.37;;;0.80;;
85093;SDS011;75432;49.056;12.004;2024-02-23T08:34:45;0.67;;;0.67;;
85093;SDS011;75432;49.056;12.004;2024-02-23T08:37:11;2.23;;;0.87;;
85093;SDS011;75432;49.056;12.004;2024-02-23T08:39:38;1.50;;;0.70;;
85093;SDS011;75432;49.056;12.004;2024-02-23T08:42:05;2.13;;;0.73;;
85093;SDS011;75432;49.056;12.004;2024-02-23T08:44:31;2.33;;;0.70;;
85093;SDS011;75432;49.056;12.004;2024-02-23T08:46:58;1.63;;;0.50;;
85093;SDS011;75432;49.056;12.004;2024-02-23T08:49:24;1.40;;;0.83;;
85093;SDS011;75432;49.056;12.004;2024-02-23T08:51:51;0.63;;;0.60;;
85093;SDS011;75432;49.056;12.004;2024-02-23T08:54:18;0.83;;;0.60;;
85093;SDS011;75432;49.056;12.004;2024-02-23T08:56:44;0.70;;;0.70;;
85093;SDS011;75432;49.056;12.004;2024-02-23T08:59:11;0.43;;;0.40;;
85093;SDS011;75432;49.056;12.004;2024-02-23T09:01:37;0.60;;;0.60;;
85093;SDS011;75432;49.056;12.004;2024-02-23T09:04:04;3.50;;;0.70;;
85093;SDS011;75432;49.056;12.004;2024-02-23T09:06:30;0.53;;;0.53;;
85093;SDS011;75432;49.056;12.004;2024-02-23T09:09:04;0.73;;;0.40;;
85093;SDS011;75432;49.056;12.004;2024-02-23T09:11:30;1.60;;;0.70;;
85093;SDS011;75432;49.056;12.004;2024-02-23T09:13:57;0.60;;;0.50;;
85093;SDS011;75432;49.056;12.004;2024-02-23T09:16:24;2.37;;;0.50;;
85093;SDS011;75432;49.056;12.004;2024-02-23T09:18:51;3.30;;;0.77;;
85093;SDS011;75432;49.056;12.004;2024-02-23T09:21:17;1.07;;;0.43;;
85093;SDS011;75432;49.056;12.004;2024-02-23T09:23:45;1.20;;;0.60;;
85093;SDS011;75432;49.056;12.004;2024-02-23T09:26:11;1.53;;;0.73;;
85093;SDS011;75432;49.056;12.004;2024-02-23T09:28:38;3.10;;;0.67;;
85093;SDS011;75432;49.056;12.004;2024-02-23T09:31:07;0.83;;;0.60;;
85093;SDS011;75432;49.056;12.004;2024-02-23T09:33:34;1.63;;;0.50;;
85093;SDS011;75432;49.056;12.004;2024-02-23T09:36:00;2.37;;;0.40;;
85093;SDS011;75432;49.056;12.004;2024-02-23T09:38:27;2.27;;;0.70;;
85093;SDS011;75432;49.056;12.004;2024-02-23T09:40:54;0.37;;;0.37;;
85093;SDS011;75432;49.056;12.004;2024-02-23T09:43:21;1.10;;;0.80;;
85093;SDS011;75432;49.056;12.004;2024-02-23T09:45:51;0.47;;;0.40;;
85093;SDS011;75432;49.056;12.004;2024-02-23T09:48:18;1.13;;;0.30;;
85093;SDS011;75432;49.056;12.004;2024-02-23T09:50:46;1.27;;;0.50;;
85093;SDS011;75432;49.056;12.004;2024-02-23T09:53:14;0.40;;;0.37;;
85093;SDS011;75432;49.056;12.004;2024-02-23T09:55:42;0.50;;;0.50;;
85093;SDS011;75432;49.056;12.004;2024-02-23T09:58:10;1.47;;;0.50;;
85093;SDS011;75432;49.056;12.004;2024-02-23T10:00:40;2.27;;;0.60;;
85093;SDS011;75432;49.056;12.004;2024-02-23T10:03:07;0.80;;;0.47;;
85093;SDS011;75432;49.056;12.004;2024-02-23T10:05:33;2.00;;;0.70;;
85093;SDS011;75432;49.056;12.004;2024-02-23T10:08:06;0.30;;;0.30;;
85093;SDS011;75432;49.056;12.004;2024-02-23T10:10:34;1.17;;;0.47;;
85093;SDS011;75432;49.056;12.004;2024-02-23T10:13:02;0.53;;;0.40;;
85093;SDS011;75432;49.056;12.004;2024-02-23T10:15:30;1.10;;;0.40;;
85093;SDS011;75432;49.056;12.004;2024-02-23T10:17:57;1.80;;;0.40;;
85093;SDS011;75432;49.056;12.004;2024-02-23T10:20:24;0.50;;;0.40;;
85093;SDS011;75432;49.056;12.004;2024-02-23T10:22:50;1.70;;;0.50;;
85093;SDS011;75432;49.056;12.004;2024-02-23T10:25:19;1.10;;;0.30;;
85093;SDS011;75432;49.056;12.004;2024-02-23T10:27:46;3.53;;;0.67;;
85093;SDS011;75432;49.056;12.004;2024-02-23T10:30:13;0.80;;;0.70;;
85093;SDS011;75432;49.056;12.004;2024-02-23T10:32:41;0.50;;;0.50;;
85093;SDS011;75432;49.056;12.004;2024-02-23T10:35:15;1.73;;;0.40;;
85093;SDS011;75432;49.056;12.004;2024-02-23T10:37:47;1.37;;;0.50;;
85093;SDS011;75432;49.056;12.004;2024-02-23T10:40:18;0.40;;;0.40;;
85093;SDS011;75432;49.056;12.004;2024-02-23T10:42:47;2.20;;;0.40;;
85093;SDS011;75432;49.056;12.004;2024-02-23T10:45:17;0.67;;;0.43;;
85093;SDS011;75432;49.056;12.004;2024-02-23T10:47:45;2.03;;;0.57;;
85093;SDS011;75432;49.056;12.004;2024-02-23T10:50:14;0.53;;;0.43;;
85093;SDS011;75432;49.056;12.004;2024-02-23T10:52:44;0.40;;;0.40;;
85093;SDS011;75432;49.056;12.004;2024-02-23T10:55:12;0.47;;;0.30;;
85093;SDS011;75432;49.056;12.004;2024-02-23T10:57:40;0.67;;;0.57;;
85093;SDS011;75432;49.056;12.004;2024-02-23T11:00:07;1.27;;;0.40;;
85093;SDS011;75432;49.056;12.004;2024-02-23T11:02:40;1.27;;;0.60;;
85093;SDS011;75432;49.056;12.004;2024-02-23T11:05:12;1.17;;;0.70;;
85093;SDS011;75432;49.056;12.004;2024-02-23T11:07:41;0.50;;;0.50;;
85093;SDS011;75432;49.056;12.004;2024-02-23T11:10:08;1.23;;;0.50;;
85093;SDS011;75432;49.056;12.004;2024-02-23T11:12:37;0.50;;;0.50;;
85093;SDS011;75432;49.056;12.004;2024-02-23T11:15:04;1.17;;;0.50;;
85093;SDS011;75432;49.056;12.004;2024-02-23T11:17:31;1.13;;;0.50;;
85093;SDS011;75432;49.056;12.004;2024-02-23T11:20:02;0.40;;;0.40;;
85093;SDS011;75432;49.056;12.004;2024-02-23T11:22:31;4.63;;;0.70;;
85093;SDS011;75432;49.056;12.004;2024-02-23T11:25:05;1.40;;;0.40;;
85093;SDS011;75432;49.056;12.004;2024-02-23T11:27:35;1.43;;;0.50;;
85093;SDS011;75432;49.056;12.004;2024-02-23T11:30:09;0.77;;;0.50;;
85093;SDS011;75432;49.056;12.004;2024-02-23T11:32:38;3.03;;;0.67;;
85093;SDS011;75432;49.056;12.004;2024-02-23T11:35:08;4.43;;;0.70;;
85093;SDS011;75432;49.056;12.004;2024-02-23T11:37:43;4.33;;;0.80;;
85093;SDS011;75432;49.056;12.004;2024-02-23T11:40:31;1.60;;;0.70;;
85093;SDS011;75432;49.056;12.004;2024-02-23T11:42:58;2.53;;;0.73;;
85093;SDS011;75432;49.056;12.004;2024-02-23T11:45:28;0.63;;;0.53;;
85093;SDS011;75432;49.056;12.004;2024-02-23T11:47:55;1.13;;;0.67;;
85093;SDS011;75432;49.056;12.004;2024-02-23T11:50:22;4.60;;;0.60;;
85093;SDS011;75432;49.056;12.004;2024-02-23T11:52:48;0.67;;;0.40;;
85093;SDS011;75432;49.056;12.004;2024-02-23T11:55:18;0.40;;;0.40;;
85093;SDS011;75432;49.056;12.004;2024-02-23T11:57:49;0.73;;;0.73;;
85093;SDS011;75432;49.056;12.004;2024-02-23T12:00:27;0.83;;;0.70;;
85093;SDS011;75432;49.056;12.004;2024-02-23T12:02:55;1.27;;;0.90;;
85093;SDS011;75432;49.056;12.004;2024-02-23T12:05:21;1.63;;;0.83;;
85093;SDS011;75432;49.056;12.004;2024-02-23T12:07:48;1.77;;;1.10;;
85093;SDS011;75432;49.056;12.004;2024-02-23T12:10:15;2.37;;;1.00;;
85093;SDS011;75432;49.056;12.004;2024-02-23T12:12:42;2.50;;;1.00;;
85093;SDS011;75432;49.056;12.004;2024-02-23T12:15:09;1.10;;;1.00;;
85093;SDS011;75432;49.056;12.004;2024-02-23T12:17:36;1.57;;;0.90;;
85093;SDS011;75432;49.056;12.004;2024-02-23T12:20:03;1.07;;;0.83;;
85093;SDS011;75432;49.056;12.004;2024-02-23T12:22:33;2.77;;;1.20;;
85093;SDS011;75432;49.056;12.004;2024-02-23T12:25:00;1.10;;;1.00;;
85093;SDS011;75432;49.056;12.004;2024-02-23T12:27:26;1.57;;;0.90;;
85093;SDS011;75432;49.056;12.004;2024-02-23T12:29:55;2.53;;;1.03;;
85093;SDS011;75432;49.056;12.004;2024-02-23T12:32:21;1.03;;;0.90;;
85093;SDS011;75432;49.056;12.004;2024-02-23T12:34:48;0.93;;;0.93;;
85093;SDS011;75432;49.056;12.004;2024-02-23T12:37:15;1.17;;;1.00;;
85093;SDS011;75432;49.056;12.004;2024-02-23T12:39:43;1.10;;;1.00;;
85093;SDS011;75432;49.056;12.004;2024-02-23T12:42:10;1.00;;;1.00;;
85093;SDS011;75432;49.056;12.004;2024-02-23T12:44:36;2.67;;;1.30;;
85093;SDS011;75432;49.056;12.004;2024-02-23T12:47:03;1.97;;;1.20;;
85093;SDS011;75432;49.056;12.004;2024-02-23T12:49:30;1.10;;;1.00;;
85093;SDS011;75432;49.056;12.004;2024-02-23T12:51:56;2.57;;;1.10;;
85093;SDS011;75432;49.056;12.004;2024-02-23T12:54:23;2.10;;;1.00;;
85093;SDS011;75432;49.056;12.004;2024-02-23T12:56:49;3.57;;;1.20;;
85093;SDS011;75432;49.056;12.004;2024-02-23T12:59:16;1.67;;;1.10;;
85093;SDS011;75432;49.056;12.004;2024-02-23T13:01:43;1.67;;;1.20;;
85093;SDS011;75432;49.056;12.004;2024-02-23T13:04:12;4.67;;;1.30;;
85093;SDS011;75432;49.056;12.004;2024-02-23T13:06:40;2.70;;;1.23;;
85093;SDS011;75432;49.056;12.004;2024-02-23T13:09:07;0.83;;;0.83;;
85093;SDS011;75432;49.056;12.004;2024-02-23T13:11:35;2.30;;;1.10;;
85093;SDS011;75432;49.056;12.004;2024-02-23T13:14:04;1.30;;;0.90;;
85093;SDS011;75432;49.056;12.004;2024-02-23T13:16:31;4.77;;;1.30;;
85093;SDS011;75432;49.056;12.004;2024-02-23T13:18:58;2.07;;;1.20;;
85093;SDS011;75432;49.056;12.004;2024-02-23T13:21:24;3.13;;;1.30;;
85093;SDS011;75432;49.056;12.004;2024-02-23T13:23:51;3.57;;;0.90;;
85093;SDS011;75432;49.056;12.004;2024-02-23T13:26:17;1.00;;;0.93;;
85093;SDS011;75432;49.056;12.004;2024-02-23T13:28:44;1.17;;;1.00;;
85093;SDS011;75432;49.056;12.004;2024-02-23T13:31:11;3.20;;;0.80;;
85093;SDS011;75432;49.056;12.004;2024-02-23T13:33:38;2.17;;;0.70;;
85093;SDS011;75432;49.056;12.004;2024-02-23T13:36:05;1.70;;;0.80;;
85093;SDS011;75432;49.056;12.004;2024-02-23T13:38:32;1.17;;;0.67;;
85093;SDS011;75432;49.056;12.004;2024-02-23T13:41:04;2.60;;;0.70;;
85093;SDS011;75432;49.056;12.004;2024-02-23T13:43:31;1.30;;;0.50;;
85093;SDS011;75432;49.056;12.004;2024-02-23T13:45:59;1.33;;;0.60;;
85093;SDS011;75432;49.056;12.004;2024-02-23T13:48:26;2.47;;;1.10;;
85093;SDS011;75432;49.056;12.004;2024-02-23T13:50:52;2.30;;;1.00;;
85093;SDS011;75432;49.056;12.004;2024-02-23T13:53:19;0.80;;;0.80;;
85093;SDS011;75432;49.056;12.004;2024-02-23T13:55:46;1.57;;;0.90;;
85093;SDS011;75432;49.056;12.004;2024-02-23T13:58:13;3.00;;;1.40;;
85093;SDS011;75432;49.056;12.004;2024-02-23T14:00:40;2.23;;;1.10;;
85093;SDS011;75432;49.056;12.004;2024-02-23T14:03:06;1.83;;;0.87;;
85093;SDS011;75432;49.056;12.004;2024-02-23T14:05:33;2.53;;;0.70;;
85093;SDS011;75432;49.056;12.004;2024-02-23T14:08:00;2.37;;;0.87;;
85093;SDS011;75432;49.056;12.004;2024-02-23T14:10:27;0.83;;;0.80;;
85093;SDS011;75432;49.056;12.004;2024-02-23T14:12:53;0.67;;;0.60;;
85093;SDS011;75432;49.056;12.004;2024-02-23T14:15:21;1.53;;;0.80;;
85093;SDS011;75432;49.056;12.004;2024-02-23T14:17:48;1.03;;;0.60;;
85093;SDS011;75432;49.056;12.004;2024-02-23T14:20:16;0.80;;;0.60;;
85093;SDS011;75432;49.056;12.004;2024-02-23T14:22:42;3.17;;;0.90;;
85093;SDS011;75432;49.056;12.004;2024-02-23T14:25:08;1.60;;;0.60;;
85093;SDS011;75432;49.056;12.004;2024-02-23T14:27:36;0.77;;;0.77;;
85093;SDS011;75432;49.056;12.004;2024-02-23T14:30:02;1.00;;;0.70;;
85093;SDS011;75432;49.056;12.004;2024-02-23T14:32:29;1.07;;;0.70;;
85093;SDS011;75432;49.056;12.004;2024-02-23T14:34:57;1.63;;;0.70;;